UGKO Airport Information

Runway Information
Runway 07 Length 8202 ft width 144 ft
Elevation 197 ft Threshold ft Heading 81
Runway 25 Length 8202 ft Width 144 ft
Elevation 223 ft Threshold ft Heading 261
Airport Frequencies
Type TWR Name KUTAISI TW Frequency 125.5 MHZ
Airport Navaids
Type VOR-DME Name Kutaisi Frequency 113600 KHZ
Type NDB Name Kutaisi Frequency 477 KHZ
Type NDB Name Kutaisi Frequency 842 KHZ
Airport Weather Information & NOTAM
ADDS - METARS form results

(1807 UTC 15 August 2022)
Data provider http://aviationweather.gov/metar/data/
 
METAR text: UGKO 151800Z VRB02KT 9999 OVC038 25/23 Q1006 NOSIG
Conditions at: UGKO (KOPITNARI , GE) observed 1800 UTC 15 August 2022
Temperature: 25.0°C (77°F)
Dewpoint: 23.0°C (73°F) [RH = 89%]
Pressure (altimeter): 29.70 inches Hg (1006.0 mb)
Winds: variable direction winds at 2 MPH (2 knots; 1.0 m/s)
Visibility: 6 or more miles (10+ km)
Ceiling: 3800 feet AGL
Clouds: overcast cloud deck at 3800 feet AGL
Weather: no significant weather observed at this time

METAR text: UGKO 151730Z VRB02KT 9999 BKN037 26/23 Q1006 NOSIG
Conditions at: UGKO (KOPITNARI , GE) observed 1730 UTC 15 August 2022
Temperature: 26.0°C (79°F)
Dewpoint: 23.0°C (73°F) [RH = 84%]
Pressure (altimeter): 29.70 inches Hg (1006.0 mb)
Winds: variable direction winds at 2 MPH (2 knots; 1.0 m/s)
Visibility: 6 or more miles (10+ km)
Ceiling: 3700 feet AGL
Clouds: broken clouds at 3700 feet AGL
Weather: no significant weather observed at this time

Forecast for: UGKO (KOPITNARI , GE)
Text: TAF UGKO 151700Z 1518/1618 26006KT 9999 BKN030 TX33/1611Z TN22/1602Z
Forecast period: 1800 UTC 15 August 2022 to 1800 UTC 16 August 2022
Forecast type: FROM: standard forecast or significant change
Winds: from the W (260 degrees) at 7 MPH (6 knots; 3.1 m/s)
Visibility: 6 or more miles (10+ km)
Ceiling: 3000 feet AGL
Clouds: broken clouds at 3000 feet AGL
Weather: no significant weather forecast for this period
Text: TEMPO 1518/1523 OVC040
Forecast period: 1800 to 2300 UTC 15 August 2022
Forecast type: TEMPORARY: The following changes expected for less than half the time period
Visibility: missing
Ceiling: 4000 feet AGL
Clouds: overcast cloud deck at 4000 feet AGL
Weather: no significant weather forecast for this period
Text: TEMPO 1608/1612 CAVOK
Forecast period: 0800 to 1200 UTC 16 August 2022
Forecast type: TEMPORARY: The following changes expected for less than half the time period
Visibility: 6 or more miles (10+ km)
Ceiling: unknown
Clouds: missing
Weather: NSW  (no significant weather)